< < Back
Terminal Aerodrome Forecast


Current Version              Previous Versions:   1  2  3  4  5  6  7  8  9  

Terminal Aerodrome Forecast

451
FTUS42 KTAE 181700
TAFDHN
TAF
KDHN 181720Z 1818/1918 04005KT P6SM BKN250
     FM190500 00000KT P6SM SCT250
     FM191400 09006KT P6SM SCT250=

Latest METAR

250
SAUS70 KWBC 181700 RRD
MTRDHN
METAR KDHN 181653Z 00000KT 10SM CLR 30/17 A3000 RMK AO2 SLP152
T03000167


USA.gov is the U.S. government's official web portal to all federal, state and local government web resources and services.